sensor_id;sensor_type;location;lat;lon;timestamp;P1;durP1;ratioP1;P2;durP2;ratioP2
38717;SDS011;24468;52.128;9.278;2023-10-13T00:01:57;11.88;;;8.80;;
38717;SDS011;24468;52.128;9.278;2023-10-13T00:04:27;2.65;;;1.58;;
38717;SDS011;24468;52.128;9.278;2023-10-13T00:06:54;5.55;;;3.42;;
38717;SDS011;24468;52.128;9.278;2023-10-13T00:09:23;6.43;;;4.13;;
38717;SDS011;24468;52.128;9.278;2023-10-13T00:11:51;8.43;;;6.65;;
38717;SDS011;24468;52.128;9.278;2023-10-13T00:14:19;10.02;;;7.25;;
38717;SDS011;24468;52.128;9.278;2023-10-13T00:16:46;8.77;;;5.65;;
38717;SDS011;24468;52.128;9.278;2023-10-13T00:19:29;9.57;;;6.53;;
38717;SDS011;24468;52.128;9.278;2023-10-13T00:22:11;8.45;;;7.38;;
38717;SDS011;24468;52.128;9.278;2023-10-13T00:24:41;8.57;;;6.05;;
38717;SDS011;24468;52.128;9.278;2023-10-13T00:27:10;9.57;;;7.20;;
38717;SDS011;24468;52.128;9.278;2023-10-13T00:30:04;12.90;;;7.88;;
38717;SDS011;24468;52.128;9.278;2023-10-13T00:32:47;8.82;;;6.97;;
38717;SDS011;24468;52.128;9.278;2023-10-13T00:35:24;13.15;;;7.88;;
38717;SDS011;24468;52.128;9.278;2023-10-13T00:37:54;9.63;;;7.60;;
38717;SDS011;24468;52.128;9.278;2023-10-13T00:40:29;11.15;;;7.18;;
38717;SDS011;24468;52.128;9.278;2023-10-13T00:42:57;9.63;;;8.15;;
38717;SDS011;24468;52.128;9.278;2023-10-13T00:45:57;8.88;;;7.97;;
38717;SDS011;24468;52.128;9.278;2023-10-13T00:48:28;8.43;;;7.63;;
38717;SDS011;24468;52.128;9.278;2023-10-13T00:50:59;12.07;;;8.77;;
38717;SDS011;24468;52.128;9.278;2023-10-13T00:53:34;9.77;;;8.85;;
38717;SDS011;24468;52.128;9.278;2023-10-13T00:56:05;11.68;;;10.38;;
38717;SDS011;24468;52.128;9.278;2023-10-13T00:58:43;9.73;;;7.35;;
38717;SDS011;24468;52.128;9.278;2023-10-13T01:01:11;10.65;;;8.50;;
38717;SDS011;24468;52.128;9.278;2023-10-13T01:03:44;8.63;;;7.72;;
38717;SDS011;24468;52.128;9.278;2023-10-13T01:06:13;12.70;;;8.75;;
38717;SDS011;24468;52.128;9.278;2023-10-13T01:08:47;8.90;;;8.00;;
38717;SDS011;24468;52.128;9.278;2023-10-13T01:11:16;10.93;;;8.27;;
38717;SDS011;24468;52.128;9.278;2023-10-13T01:13:48;10.10;;;8.10;;
38717;SDS011;24468;52.128;9.278;2023-10-13T01:16:19;11.13;;;8.13;;
38717;SDS011;24468;52.128;9.278;2023-10-13T01:18:51;11.43;;;8.18;;
38717;SDS011;24468;52.128;9.278;2023-10-13T01:21:18;9.13;;;7.57;;
38717;SDS011;24468;52.128;9.278;2023-10-13T01:23:52;9.75;;;8.02;;
38717;SDS011;24468;52.128;9.278;2023-10-13T01:26:17;9.77;;;7.88;;
38717;SDS011;24468;52.128;9.278;2023-10-13T01:28:56;9.00;;;6.35;;
38717;SDS011;24468;52.128;9.278;2023-10-13T01:31:22;9.95;;;8.05;;
38717;SDS011;24468;52.128;9.278;2023-10-13T01:33:56;10.10;;;9.10;;
38717;SDS011;24468;52.128;9.278;2023-10-13T01:36:28;8.27;;;7.47;;
38717;SDS011;24468;52.128;9.278;2023-10-13T01:39:00;9.15;;;8.13;;
38717;SDS011;24468;52.128;9.278;2023-10-13T01:41:26;9.45;;;8.52;;
38717;SDS011;24468;52.128;9.278;2023-10-13T01:43:52;7.32;;;6.63;;
38717;SDS011;24468;52.128;9.278;2023-10-13T01:46:17;9.32;;;8.02;;
38717;SDS011;24468;52.128;9.278;2023-10-13T01:48:46;7.97;;;7.22;;
38717;SDS011;24468;52.128;9.278;2023-10-13T01:51:12;10.05;;;7.00;;
38717;SDS011;24468;52.128;9.278;2023-10-13T01:53:39;10.30;;;6.88;;
38717;SDS011;24468;52.128;9.278;2023-10-13T01:56:06;8.60;;;7.32;;
38717;SDS011;24468;52.128;9.278;2023-10-13T01:58:39;9.10;;;6.53;;
38717;SDS011;24468;52.128;9.278;2023-10-13T02:01:11;10.30;;;6.80;;
38717;SDS011;24468;52.128;9.278;2023-10-13T02:03:38;9.02;;;6.50;;
38717;SDS011;24468;52.128;9.278;2023-10-13T02:06:11;7.22;;;6.30;;
38717;SDS011;24468;52.128;9.278;2023-10-13T02:08:42;8.57;;;6.35;;
38717;SDS011;24468;52.128;9.278;2023-10-13T02:11:09;7.57;;;5.50;;
38717;SDS011;24468;52.128;9.278;2023-10-13T02:13:34;7.28;;;5.35;;
38717;SDS011;24468;52.128;9.278;2023-10-13T02:16:06;6.82;;;5.38;;
38717;SDS011;24468;52.128;9.278;2023-10-13T02:18:32;12.25;;;6.30;;
38717;SDS011;24468;52.128;9.278;2023-10-13T02:21:08;6.47;;;5.78;;
38717;SDS011;24468;52.128;9.278;2023-10-13T02:23:38;10.32;;;7.00;;
38717;SDS011;24468;52.128;9.278;2023-10-13T02:26:09;7.15;;;5.30;;
38717;SDS011;24468;52.128;9.278;2023-10-13T02:28:40;7.55;;;5.20;;
38717;SDS011;24468;52.128;9.278;2023-10-13T02:31:06;6.00;;;5.22;;
38717;SDS011;24468;52.128;9.278;2023-10-13T02:33:33;6.95;;;6.05;;
38717;SDS011;24468;52.128;9.278;2023-10-13T02:35:59;6.63;;;5.47;;
38717;SDS011;24468;52.128;9.278;2023-10-13T02:38:32;6.50;;;5.07;;
38717;SDS011;24468;52.128;9.278;2023-10-13T02:41:09;7.43;;;5.95;;
38717;SDS011;24468;52.128;9.278;2023-10-13T02:43:50;7.22;;;4.93;;
38717;SDS011;24468;52.128;9.278;2023-10-13T02:46:15;8.43;;;5.30;;
38717;SDS011;24468;52.128;9.278;2023-10-13T02:48:41;5.82;;;5.22;;
38717;SDS011;24468;52.128;9.278;2023-10-13T02:51:10;7.07;;;4.93;;
38717;SDS011;24468;52.128;9.278;2023-10-13T02:53:43;5.60;;;4.75;;
38717;SDS011;24468;52.128;9.278;2023-10-13T02:56:13;6.90;;;4.93;;
38717;SDS011;24468;52.128;9.278;2023-10-13T02:58:45;5.30;;;4.80;;
38717;SDS011;24468;52.128;9.278;2023-10-13T03:01:18;6.13;;;4.88;;
38717;SDS011;24468;52.128;9.278;2023-10-13T03:03:49;8.30;;;5.32;;
38717;SDS011;24468;52.128;9.278;2023-10-13T03:06:23;8.95;;;4.88;;
38717;SDS011;24468;52.128;9.278;2023-10-13T03:08:57;7.20;;;4.80;;
38717;SDS011;24468;52.128;9.278;2023-10-13T03:11:40;8.20;;;6.70;;
38717;SDS011;24468;52.128;9.278;2023-10-13T03:16:57;7.45;;;4.72;;
38717;SDS011;24468;52.128;9.278;2023-10-13T03:19:28;8.02;;;5.80;;
38717;SDS011;24468;52.128;9.278;2023-10-13T03:21:58;7.78;;;5.63;;
38717;SDS011;24468;52.128;9.278;2023-10-13T03:24:34;9.23;;;5.47;;
38717;SDS011;24468;52.128;9.278;2023-10-13T03:27:01;6.72;;;5.65;;
38717;SDS011;24468;52.128;9.278;2023-10-13T03:29:41;7.13;;;4.70;;
38717;SDS011;24468;52.128;9.278;2023-10-13T03:32:12;10.00;;;5.78;;
38717;SDS011;24468;52.128;9.278;2023-10-13T03:34:43;7.45;;;5.60;;
38717;SDS011;24468;52.128;9.278;2023-10-13T03:37:17;7.45;;;4.97;;
38717;SDS011;24468;52.128;9.278;2023-10-13T03:39:45;9.20;;;5.38;;
38717;SDS011;24468;52.128;9.278;2023-10-13T03:42:11;7.40;;;5.60;;
38717;SDS011;24468;52.128;9.278;2023-10-13T03:44:57;6.07;;;5.47;;
38717;SDS011;24468;52.128;9.278;2023-10-13T03:47:22;7.15;;;6.18;;
38717;SDS011;24468;52.128;9.278;2023-10-13T03:49:57;9.30;;;5.50;;
38717;SDS011;24468;52.128;9.278;2023-10-13T03:52:40;7.63;;;6.00;;
38717;SDS011;24468;52.128;9.278;2023-10-13T03:55:06;9.48;;;6.22;;
38717;SDS011;24468;52.128;9.278;2023-10-13T03:57:33;7.93;;;6.95;;
38717;SDS011;24468;52.128;9.278;2023-10-13T03:59:59;6.45;;;5.45;;
38717;SDS011;24468;52.128;9.278;2023-10-13T04:02:33;7.72;;;5.70;;
38717;SDS011;24468;52.128;9.278;2023-10-13T04:04:58;9.20;;;6.68;;
38717;SDS011;24468;52.128;9.278;2023-10-13T04:07:32;7.55;;;6.30;;
38717;SDS011;24468;52.128;9.278;2023-10-13T04:09:58;6.10;;;5.60;;
38717;SDS011;24468;52.128;9.278;2023-10-13T04:12:55;9.07;;;6.40;;
38717;SDS011;24468;52.128;9.278;2023-10-13T04:15:42;8.68;;;6.38;;
38717;SDS011;24468;52.128;9.278;2023-10-13T04:18:27;8.27;;;6.65;;
38717;SDS011;24468;52.128;9.278;2023-10-13T04:21:21;7.03;;;6.22;;
38717;SDS011;24468;52.128;9.278;2023-10-13T04:24:07;8.68;;;6.18;;
38717;SDS011;24468;52.128;9.278;2023-10-13T04:26:49;12.00;;;6.18;;
38717;SDS011;24468;52.128;9.278;2023-10-13T04:29:52;6.47;;;5.80;;
38717;SDS011;24468;52.128;9.278;2023-10-13T04:32:33;7.55;;;6.05;;
38717;SDS011;24468;52.128;9.278;2023-10-13T04:35:03;8.65;;;5.65;;
38717;SDS011;24468;52.128;9.278;2023-10-13T04:37:43;6.72;;;5.13;;
38717;SDS011;24468;52.128;9.278;2023-10-13T04:40:19;6.70;;;5.90;;
38717;SDS011;24468;52.128;9.278;2023-10-13T04:42:49;8.43;;;5.97;;
38717;SDS011;24468;52.128;9.278;2023-10-13T04:45:18;8.75;;;6.07;;
38717;SDS011;24468;52.128;9.278;2023-10-13T04:47:57;6.82;;;5.10;;
38717;SDS011;24468;52.128;9.278;2023-10-13T04:50:40;6.50;;;4.82;;
38717;SDS011;24468;52.128;9.278;2023-10-13T04:53:16;6.80;;;4.95;;
38717;SDS011;24468;52.128;9.278;2023-10-13T04:55:55;29.85;;;11.80;;
38717;SDS011;24468;52.128;9.278;2023-10-13T04:58:28;6.88;;;5.35;;
38717;SDS011;24468;52.128;9.278;2023-10-13T05:01:03;15.43;;;5.82;;
38717;SDS011;24468;52.128;9.278;2023-10-13T05:03:49;5.70;;;5.13;;
38717;SDS011;24468;52.128;9.278;2023-10-13T05:06:30;7.50;;;5.72;;
38717;SDS011;24468;52.128;9.278;2023-10-13T05:09:09;12.93;;;7.38;;
38717;SDS011;24468;52.128;9.278;2023-10-13T05:11:54;11.82;;;6.40;;
38717;SDS011;24468;52.128;9.278;2023-10-13T05:14:38;9.60;;;5.32;;
38717;SDS011;24468;52.128;9.278;2023-10-13T05:17:22;6.65;;;5.28;;
38717;SDS011;24468;52.128;9.278;2023-10-13T05:20:07;7.65;;;4.47;;
38717;SDS011;24468;52.128;9.278;2023-10-13T05:22:51;5.55;;;4.90;;
38717;SDS011;24468;52.128;9.278;2023-10-13T05:25:35;5.35;;;4.63;;
38717;SDS011;24468;52.128;9.278;2023-10-13T05:28:21;5.05;;;4.57;;
38717;SDS011;24468;52.128;9.278;2023-10-13T05:31:06;5.60;;;4.65;;
38717;SDS011;24468;52.128;9.278;2023-10-13T05:33:50;7.22;;;4.20;;
38717;SDS011;24468;52.128;9.278;2023-10-13T05:36:34;5.32;;;4.55;;
38717;SDS011;24468;52.128;9.278;2023-10-13T05:39:18;6.57;;;4.10;;
38717;SDS011;24468;52.128;9.278;2023-10-13T05:42:03;4.25;;;3.85;;
38717;SDS011;24468;52.128;9.278;2023-10-13T05:44:47;7.10;;;4.60;;
38717;SDS011;24468;52.128;9.278;2023-10-13T05:47:32;5.85;;;4.20;;
38717;SDS011;24468;52.128;9.278;2023-10-13T05:50:03;3.63;;;3.33;;
38717;SDS011;24468;52.128;9.278;2023-10-13T05:52:47;4.47;;;3.80;;
38717;SDS011;24468;52.128;9.278;2023-10-13T05:55:21;3.95;;;3.40;;
38717;SDS011;24468;52.128;9.278;2023-10-13T05:58:09;4.40;;;3.72;;
38717;SDS011;24468;52.128;9.278;2023-10-13T06:00:54;4.40;;;3.50;;
38717;SDS011;24468;52.128;9.278;2023-10-13T06:03:39;4.72;;;3.55;;
38717;SDS011;24468;52.128;9.278;2023-10-13T06:06:23;4.90;;;3.45;;
38717;SDS011;24468;52.128;9.278;2023-10-13T06:09:07;4.32;;;3.13;;
38717;SDS011;24468;52.128;9.278;2023-10-13T06:11:50;4.93;;;3.38;;
38717;SDS011;24468;52.128;9.278;2023-10-13T06:14:35;5.72;;;3.10;;
38717;SDS011;24468;52.128;9.278;2023-10-13T06:17:18;3.67;;;2.67;;
38717;SDS011;24468;52.128;9.278;2023-10-13T06:20:03;3.03;;;2.47;;
38717;SDS011;24468;52.128;9.278;2023-10-13T06:22:48;3.83;;;2.20;;
38717;SDS011;24468;52.128;9.278;2023-10-13T06:25:32;3.13;;;2.20;;
38717;SDS011;24468;52.128;9.278;2023-10-13T06:28:18;5.47;;;3.00;;
38717;SDS011;24468;52.128;9.278;2023-10-13T06:31:03;2.53;;;2.33;;
38717;SDS011;24468;52.128;9.278;2023-10-13T06:33:34;5.57;;;2.95;;
38717;SDS011;24468;52.128;9.278;2023-10-13T06:36:01;2.63;;;1.77;;
38717;SDS011;24468;52.128;9.278;2023-10-13T06:38:28;3.05;;;2.17;;
38717;SDS011;24468;52.128;9.278;2023-10-13T06:41:01;2.22;;;1.98;;
38717;SDS011;24468;52.128;9.278;2023-10-13T06:43:30;3.78;;;2.58;;
38717;SDS011;24468;52.128;9.278;2023-10-13T06:46:05;3.60;;;2.90;;
38717;SDS011;24468;52.128;9.278;2023-10-13T06:48:32;4.13;;;2.78;;
38717;SDS011;24468;52.128;9.278;2023-10-13T06:50:59;3.83;;;2.88;;
38717;SDS011;24468;52.128;9.278;2023-10-13T06:53:29;4.47;;;2.05;;
38717;SDS011;24468;52.128;9.278;2023-10-13T06:56:01;4.55;;;3.05;;
38717;SDS011;24468;52.128;9.278;2023-10-13T06:58:31;4.03;;;2.80;;
38717;SDS011;24468;52.128;9.278;2023-10-13T07:00:57;4.45;;;2.60;;
38717;SDS011;24468;52.128;9.278;2023-10-13T07:03:26;5.45;;;3.25;;
38717;SDS011;24468;52.128;9.278;2023-10-13T07:05:52;4.85;;;2.85;;
38717;SDS011;24468;52.128;9.278;2023-10-13T07:08:18;4.18;;;3.60;;
38717;SDS011;24468;52.128;9.278;2023-10-13T07:10:47;4.72;;;3.03;;
38717;SDS011;24468;52.128;9.278;2023-10-13T07:13:17;5.82;;;3.88;;
38717;SDS011;24468;52.128;9.278;2023-10-13T07:15:44;4.40;;;3.60;;
38717;SDS011;24468;52.128;9.278;2023-10-13T07:18:14;6.15;;;3.65;;
38717;SDS011;24468;52.128;9.278;2023-10-13T07:20:42;6.35;;;4.25;;
38717;SDS011;24468;52.128;9.278;2023-10-13T07:23:13;4.60;;;3.63;;
38717;SDS011;24468;52.128;9.278;2023-10-13T07:25:55;5.90;;;3.63;;
38717;SDS011;24468;52.128;9.278;2023-10-13T07:28:28;9.57;;;3.72;;
38717;SDS011;24468;52.128;9.278;2023-10-13T07:31:01;4.22;;;3.22;;
38717;SDS011;24468;52.128;9.278;2023-10-13T07:33:29;6.05;;;3.33;;
38717;SDS011;24468;52.128;9.278;2023-10-13T07:36:03;4.43;;;2.95;;
38717;SDS011;24468;52.128;9.278;2023-10-13T07:38:40;6.97;;;3.35;;
38717;SDS011;24468;52.128;9.278;2023-10-13T07:41:07;4.80;;;3.47;;
38717;SDS011;24468;52.128;9.278;2023-10-13T07:43:34;6.10;;;3.42;;
38717;SDS011;24468;52.128;9.278;2023-10-13T07:46:02;3.85;;;2.70;;
38717;SDS011;24468;52.128;9.278;2023-10-13T07:48:34;4.28;;;3.15;;
38717;SDS011;24468;52.128;9.278;2023-10-13T07:51:03;3.75;;;3.13;;
38717;SDS011;24468;52.128;9.278;2023-10-13T07:53:57;4.93;;;3.22;;
38717;SDS011;24468;52.128;9.278;2023-10-13T07:56:22;4.13;;;3.05;;
38717;SDS011;24468;52.128;9.278;2023-10-13T07:58:48;2.78;;;2.50;;
38717;SDS011;24468;52.128;9.278;2023-10-13T08:01:25;4.75;;;3.03;;
38717;SDS011;24468;52.128;9.278;2023-10-13T08:03:52;5.13;;;2.95;;
38717;SDS011;24468;52.128;9.278;2023-10-13T08:06:36;3.88;;;2.88;;
38717;SDS011;24468;52.128;9.278;2023-10-13T08:09:06;3.67;;;2.83;;
38717;SDS011;24468;52.128;9.278;2023-10-13T08:11:33;3.60;;;2.90;;
38717;SDS011;24468;52.128;9.278;2023-10-13T08:14:00;3.78;;;2.80;;
38717;SDS011;24468;52.128;9.278;2023-10-13T08:16:36;5.28;;;2.55;;
38717;SDS011;24468;52.128;9.278;2023-10-13T08:19:23;5.22;;;2.75;;
38717;SDS011;24468;52.128;9.278;2023-10-13T08:21:57;4.53;;;2.53;;
38717;SDS011;24468;52.128;9.278;2023-10-13T08:24:45;3.97;;;2.42;;
38717;SDS011;24468;52.128;9.278;2023-10-13T08:27:12;4.63;;;2.83;;
38717;SDS011;24468;52.128;9.278;2023-10-13T08:29:39;4.05;;;2.70;;
38717;SDS011;24468;52.128;9.278;2023-10-13T08:32:20;4.43;;;2.67;;
38717;SDS011;24468;52.128;9.278;2023-10-13T08:35:01;5.70;;;2.97;;
38717;SDS011;24468;52.128;9.278;2023-10-13T08:37:28;4.22;;;2.78;;
38717;SDS011;24468;52.128;9.278;2023-10-13T08:40:11;6.25;;;3.33;;
38717;SDS011;24468;52.128;9.278;2023-10-13T08:42:56;4.53;;;2.97;;
38717;SDS011;24468;52.128;9.278;2023-10-13T08:45:27;4.20;;;2.97;;
38717;SDS011;24468;52.128;9.278;2023-10-13T08:47:56;8.23;;;3.60;;
38717;SDS011;24468;52.128;9.278;2023-10-13T08:50:37;8.68;;;2.75;;
38717;SDS011;24468;52.128;9.278;2023-10-13T08:58:39;3.80;;;2.53;;
38717;SDS011;24468;52.128;9.278;2023-10-13T09:01:19;4.15;;;2.10;;
38717;SDS011;24468;52.128;9.278;2023-10-13T09:04:05;4.03;;;2.30;;
38717;SDS011;24468;52.128;9.278;2023-10-13T09:06:50;4.68;;;3.13;;
38717;SDS011;24468;52.128;9.278;2023-10-13T09:09:24;3.15;;;2.35;;
38717;SDS011;24468;52.128;9.278;2023-10-13T09:12:01;4.40;;;3.00;;
38717;SDS011;24468;52.128;9.278;2023-10-13T09:14:38;4.18;;;2.40;;
38717;SDS011;24468;52.128;9.278;2023-10-13T09:17:10;2.97;;;2.10;;
38717;SDS011;24468;52.128;9.278;2023-10-13T09:19:58;5.47;;;3.00;;
38717;SDS011;24468;52.128;9.278;2023-10-13T09:22:47;6.70;;;2.35;;
38717;SDS011;24468;52.128;9.278;2023-10-13T09:25:26;5.15;;;2.92;;
38717;SDS011;24468;52.128;9.278;2023-10-13T09:28:10;5.72;;;2.40;;
38717;SDS011;24468;52.128;9.278;2023-10-13T09:30:50;5.38;;;3.13;;
38717;SDS011;24468;52.128;9.278;2023-10-13T09:33:24;5.70;;;2.65;;
38717;SDS011;24468;52.128;9.278;2023-10-13T09:35:58;4.07;;;2.65;;
38717;SDS011;24468;52.128;9.278;2023-10-13T09:38:26;5.05;;;2.40;;
38717;SDS011;24468;52.128;9.278;2023-10-13T09:40:53;5.13;;;2.58;;
38717;SDS011;24468;52.128;9.278;2023-10-13T09:43:22;7.38;;;2.47;;
38717;SDS011;24468;52.128;9.278;2023-10-13T09:45:56;6.22;;;3.05;;
38717;SDS011;24468;52.128;9.278;2023-10-13T09:48:35;4.80;;;2.95;;
38717;SDS011;24468;52.128;9.278;2023-10-13T09:51:16;4.20;;;2.63;;
38717;SDS011;24468;52.128;9.278;2023-10-13T09:54:51;7.15;;;3.17;;
38717;SDS011;24468;52.128;9.278;2023-10-13T09:56:58;5.53;;;3.15;;
38717;SDS011;24468;52.128;9.278;2023-10-13T10:00:02;5.18;;;2.22;;
38717;SDS011;24468;52.128;9.278;2023-10-13T10:03:12;4.35;;;2.63;;
38717;SDS011;24468;52.128;9.278;2023-10-13T10:06:00;4.00;;;2.58;;
38717;SDS011;24468;52.128;9.278;2023-10-13T10:08:42;4.47;;;2.47;;
38717;SDS011;24468;52.128;9.278;2023-10-13T10:11:26;8.68;;;3.20;;
38717;SDS011;24468;52.128;9.278;2023-10-13T10:14:10;4.22;;;2.13;;
38717;SDS011;24468;52.128;9.278;2023-10-13T10:19:33;5.05;;;2.20;;
38717;SDS011;24468;52.128;9.278;2023-10-13T10:24:58;8.80;;;3.13;;
38717;SDS011;24468;52.128;9.278;2023-10-13T10:27:25;5.65;;;2.70;;
38717;SDS011;24468;52.128;9.278;2023-10-13T10:29:54;6.47;;;2.75;;
38717;SDS011;24468;52.128;9.278;2023-10-13T10:32:20;8.23;;;2.85;;
38717;SDS011;24468;52.128;9.278;2023-10-13T10:34:46;6.70;;;3.85;;
38717;SDS011;24468;52.128;9.278;2023-10-13T10:37:12;7.43;;;3.70;;
38717;SDS011;24468;52.128;9.278;2023-10-13T10:39:38;7.55;;;2.90;;
38717;SDS011;24468;52.128;9.278;2023-10-13T10:42:13;8.27;;;3.28;;
38717;SDS011;24468;52.128;9.278;2023-10-13T10:44:40;7.30;;;3.13;;
38717;SDS011;24468;52.128;9.278;2023-10-13T10:47:09;7.85;;;3.47;;
38717;SDS011;24468;52.128;9.278;2023-10-13T10:50:03;7.72;;;3.60;;
38717;SDS011;24468;52.128;9.278;2023-10-13T10:52:45;8.90;;;2.88;;
38717;SDS011;24468;52.128;9.278;2023-10-13T10:55:11;6.15;;;3.25;;
38717;SDS011;24468;52.128;9.278;2023-10-13T10:57:39;11.32;;;4.00;;
38717;SDS011;24468;52.128;9.278;2023-10-13T11:00:17;9.05;;;3.30;;
38717;SDS011;24468;52.128;9.278;2023-10-13T11:02:54;9.88;;;4.05;;
38717;SDS011;24468;52.128;9.278;2023-10-13T11:05:23;7.50;;;3.30;;
38717;SDS011;24468;52.128;9.278;2023-10-13T11:07:57;10.48;;;3.35;;
38717;SDS011;24468;52.128;9.278;2023-10-13T11:10:23;10.50;;;3.95;;
38717;SDS011;24468;52.128;9.278;2023-10-13T11:12:59;12.40;;;3.17;;
38717;SDS011;24468;52.128;9.278;2023-10-13T11:15:47;10.40;;;4.03;;
38717;SDS011;24468;52.128;9.278;2023-10-13T11:18:13;12.25;;;3.38;;
38717;SDS011;24468;52.128;9.278;2023-10-13T11:20:48;10.77;;;4.00;;
38717;SDS011;24468;52.128;9.278;2023-10-13T11:23:19;13.63;;;4.33;;
38717;SDS011;24468;52.128;9.278;2023-10-13T11:25:56;8.05;;;4.10;;
38717;SDS011;24468;52.128;9.278;2023-10-13T11:28:25;7.78;;;3.70;;
38717;SDS011;24468;52.128;9.278;2023-10-13T11:30:56;7.43;;;3.53;;
38717;SDS011;24468;52.128;9.278;2023-10-13T11:33:24;16.33;;;4.13;;
38717;SDS011;24468;52.128;9.278;2023-10-13T11:35:53;9.68;;;3.90;;
38717;SDS011;24468;52.128;9.278;2023-10-13T11:38:30;7.38;;;3.70;;
38717;SDS011;24468;52.128;9.278;2023-10-13T11:41:08;9.70;;;4.18;;
38717;SDS011;24468;52.128;9.278;2023-10-13T11:46:16;15.10;;;4.65;;
38717;SDS011;24468;52.128;9.278;2023-10-13T11:49:08;12.88;;;4.45;;
38717;SDS011;24468;52.128;9.278;2023-10-13T11:51:39;8.95;;;3.67;;
38717;SDS011;24468;52.128;9.278;2023-10-13T11:54:09;16.38;;;4.50;;
38717;SDS011;24468;52.128;9.278;2023-10-13T11:56:43;14.18;;;4.65;;
38717;SDS011;24468;52.128;9.278;2023-10-13T11:59:12;12.45;;;4.30;;
38717;SDS011;24468;52.128;9.278;2023-10-13T12:01:44;9.43;;;3.83;;
38717;SDS011;24468;52.128;9.278;2023-10-13T12:04:29;14.98;;;4.75;;
38717;SDS011;24468;52.128;9.278;2023-10-13T12:06:57;6.78;;;4.03;;
38717;SDS011;24468;52.128;9.278;2023-10-13T12:09:56;11.80;;;4.50;;
38717;SDS011;24468;52.128;9.278;2023-10-13T12:12:27;11.50;;;4.65;;
38717;SDS011;24468;52.128;9.278;2023-10-13T12:14:55;12.05;;;5.13;;
38717;SDS011;24468;52.128;9.278;2023-10-13T12:17:25;10.30;;;4.75;;
38717;SDS011;24468;52.128;9.278;2023-10-13T12:19:59;10.32;;;4.50;;
38717;SDS011;24468;52.128;9.278;2023-10-13T12:22:43;9.25;;;4.43;;
38717;SDS011;24468;52.128;9.278;2023-10-13T12:25:20;11.27;;;4.53;;
38717;SDS011;24468;52.128;9.278;2023-10-13T12:28:09;12.43;;;4.72;;
38717;SDS011;24468;52.128;9.278;2023-10-13T12:30:46;13.95;;;4.80;;
38717;SDS011;24468;52.128;9.278;2023-10-13T12:33:19;12.50;;;4.53;;
38717;SDS011;24468;52.128;9.278;2023-10-13T12:35:59;11.13;;;4.65;;
38717;SDS011;24468;52.128;9.278;2023-10-13T12:38:35;12.93;;;4.88;;
38717;SDS011;24468;52.128;9.278;2023-10-13T12:41:15;11.45;;;4.43;;
38717;SDS011;24468;52.128;9.278;2023-10-13T12:44:01;13.77;;;5.35;;
38717;SDS011;24468;52.128;9.278;2023-10-13T12:46:47;10.27;;;4.65;;
38717;SDS011;24468;52.128;9.278;2023-10-13T12:49:34;13.73;;;4.95;;
38717;SDS011;24468;52.128;9.278;2023-10-13T12:52:13;14.73;;;5.05;;
38717;SDS011;24468;52.128;9.278;2023-10-13T12:54:42;17.98;;;6.15;;
38717;SDS011;24468;52.128;9.278;2023-10-13T12:57:13;12.17;;;4.57;;
38717;SDS011;24468;52.128;9.278;2023-10-13T12:59:40;16.05;;;6.05;;
38717;SDS011;24468;52.128;9.278;2023-10-13T13:02:07;15.80;;;5.18;;
38717;SDS011;24468;52.128;9.278;2023-10-13T13:04:39;13.38;;;6.03;;
38717;SDS011;24468;52.128;9.278;2023-10-13T13:07:08;14.35;;;5.80;;
38717;SDS011;24468;52.128;9.278;2023-10-13T13:09:41;15.20;;;4.88;;
38717;SDS011;24468;52.128;9.278;2023-10-13T13:12:08;16.42;;;5.10;;
38717;SDS011;24468;52.128;9.278;2023-10-13T13:14:37;15.43;;;5.25;;
38717;SDS011;24468;52.128;9.278;2023-10-13T13:17:05;12.35;;;5.53;;
38717;SDS011;24468;52.128;9.278;2023-10-13T13:19:35;14.98;;;5.85;;
38717;SDS011;24468;52.128;9.278;2023-10-13T13:22:04;13.68;;;4.63;;
38717;SDS011;24468;52.128;9.278;2023-10-13T13:24:36;11.90;;;5.35;;
38717;SDS011;24468;52.128;9.278;2023-10-13T13:27:08;12.82;;;5.90;;
38717;SDS011;24468;52.128;9.278;2023-10-13T13:29:38;14.40;;;4.47;;
38717;SDS011;24468;52.128;9.278;2023-10-13T13:32:06;12.88;;;4.15;;
38717;SDS011;24468;52.128;9.278;2023-10-13T13:34:42;12.63;;;4.57;;
38717;SDS011;24468;52.128;9.278;2023-10-13T13:37:09;12.82;;;5.00;;
38717;SDS011;24468;52.128;9.278;2023-10-13T13:39:37;14.98;;;5.07;;
38717;SDS011;24468;52.128;9.278;2023-10-13T13:42:09;12.73;;;4.82;;
38717;SDS011;24468;52.128;9.278;2023-10-13T13:44:34;14.65;;;5.43;;
38717;SDS011;24468;52.128;9.278;2023-10-13T13:47:03;21.33;;;4.97;;
38717;SDS011;24468;52.128;9.278;2023-10-13T13:49:37;14.18;;;5.55;;
38717;SDS011;24468;52.128;9.278;2023-10-13T13:52:11;15.63;;;5.30;;
38717;SDS011;24468;52.128;9.278;2023-10-13T13:54:42;11.65;;;4.55;;
38717;SDS011;24468;52.128;9.278;2023-10-13T13:57:09;9.40;;;4.68;;
38717;SDS011;24468;52.128;9.278;2023-10-13T13:59:34;10.80;;;5.05;;
38717;SDS011;24468;52.128;9.278;2023-10-13T14:02:01;14.55;;;4.55;;
38717;SDS011;24468;52.128;9.278;2023-10-13T14:04:44;14.30;;;5.38;;
38717;SDS011;24468;52.128;9.278;2023-10-13T14:07:16;13.63;;;5.63;;
38717;SDS011;24468;52.128;9.278;2023-10-13T14:09:44;11.38;;;4.55;;
38717;SDS011;24468;52.128;9.278;2023-10-13T14:12:16;13.23;;;4.70;;
38717;SDS011;24468;52.128;9.278;2023-10-13T14:14:54;13.30;;;5.10;;
38717;SDS011;24468;52.128;9.278;2023-10-13T14:17:21;12.63;;;4.63;;
38717;SDS011;24468;52.128;9.278;2023-10-13T14:19:57;11.93;;;4.45;;
38717;SDS011;24468;52.128;9.278;2023-10-13T14:22:23;10.95;;;4.55;;
38717;SDS011;24468;52.128;9.278;2023-10-13T14:24:50;10.07;;;4.47;;
38717;SDS011;24468;52.128;9.278;2023-10-13T14:27:23;7.88;;;4.45;;
38717;SDS011;24468;52.128;9.278;2023-10-13T14:29:50;9.98;;;4.45;;
38717;SDS011;24468;52.128;9.278;2023-10-13T14:32:19;18.42;;;5.35;;
38717;SDS011;24468;52.128;9.278;2023-10-13T14:34:49;10.73;;;4.78;;
38717;SDS011;24468;52.128;9.278;2023-10-13T14:37:19;13.10;;;4.97;;
38717;SDS011;24468;52.128;9.278;2023-10-13T14:39:52;12.00;;;5.32;;
38717;SDS011;24468;52.128;9.278;2023-10-13T14:42:22;10.23;;;3.90;;
38717;SDS011;24468;52.128;9.278;2023-10-13T14:44:49;8.30;;;4.10;;
38717;SDS011;24468;52.128;9.278;2023-10-13T14:47:20;18.75;;;6.55;;
38717;SDS011;24468;52.128;9.278;2023-10-13T14:49:56;17.80;;;5.03;;
38717;SDS011;24468;52.128;9.278;2023-10-13T14:52:25;9.57;;;4.95;;
38717;SDS011;24468;52.128;9.278;2023-10-13T14:54:50;8.60;;;4.13;;
38717;SDS011;24468;52.128;9.278;2023-10-13T14:57:20;13.95;;;5.97;;
38717;SDS011;24468;52.128;9.278;2023-10-13T14:59:50;17.40;;;4.85;;
38717;SDS011;24468;52.128;9.278;2023-10-13T15:02:17;17.02;;;4.90;;
38717;SDS011;24468;52.128;9.278;2023-10-13T15:04:43;11.60;;;5.18;;
38717;SDS011;24468;52.128;9.278;2023-10-13T15:07:08;15.27;;;4.57;;
38717;SDS011;24468;52.128;9.278;2023-10-13T15:09:34;9.13;;;4.60;;
38717;SDS011;24468;52.128;9.278;2023-10-13T15:11:59;14.50;;;5.32;;
38717;SDS011;24468;52.128;9.278;2023-10-13T15:14:30;20.73;;;5.53;;
38717;SDS011;24468;52.128;9.278;2023-10-13T15:16:58;13.07;;;5.38;;
38717;SDS011;24468;52.128;9.278;2023-10-13T15:19:25;20.42;;;5.60;;
38717;SDS011;24468;52.128;9.278;2023-10-13T15:21:51;13.55;;;5.25;;
38717;SDS011;24468;52.128;9.278;2023-10-13T15:24:17;12.70;;;5.25;;
38717;SDS011;24468;52.128;9.278;2023-10-13T15:26:45;10.88;;;5.05;;
38717;SDS011;24468;52.128;9.278;2023-10-13T15:29:17;12.52;;;5.35;;
38717;SDS011;24468;52.128;9.278;2023-10-13T15:31:50;12.77;;;5.50;;
38717;SDS011;24468;52.128;9.278;2023-10-13T15:34:25;11.88;;;4.90;;
38717;SDS011;24468;52.128;9.278;2023-10-13T15:36:52;11.35;;;4.75;;
38717;SDS011;24468;52.128;9.278;2023-10-13T15:39:19;15.38;;;5.78;;
38717;SDS011;24468;52.128;9.278;2023-10-13T15:41:49;15.45;;;5.85;;